Time;durP1;ratioP1;P1;durP2;ratioP2;P2;SDS_P1;SDS_P2;PMS_P1;PMS_P2;Temp;Humidity;BMP_temperature;BMP_pressure;BME280_temperature;BME280_humidity;BME280_pressure;Samples;Min_cycle;Max_cycle;Signal;HPM_P1;HPM_P2
2022/06/08 00:01:48;;;;;;;68.87;27.27;;;16.60;99.90;;;;;;4961820;29;20397;-87
2022/06/08 00:04:15;;;;;;;72.20;34.30;;;16.60;99.90;;;;;;4961805;29;20525;-87
2022/06/08 00:06:41;;;;;;;69.37;28.80;;;16.60;99.90;;;;;;4961522;29;20444;-87
2022/06/08 00:09:06;;;;;;;72.47;31.47;;;16.60;99.90;;;;;;4962317;29;20388;-88
2022/06/08 00:11:32;;;;;;;71.80;29.03;;;16.60;99.90;;;;;;4962467;29;20169;-87
2022/06/08 00:13:58;;;;;;;69.90;28.30;;;16.60;99.90;;;;;;4962309;29;20167;-87
2022/06/08 00:16:24;;;;;;;68.77;27.20;;;16.60;99.90;;;;;;4961554;29;20206;-87
2022/06/08 00:18:49;;;;;;;69.10;27.03;;;16.60;99.90;;;;;;4960886;29;20203;-87
2022/06/08 00:21:15;;;;;;;70.17;29.87;;;16.60;99.90;;;;;;4961968;29;20201;-87
2022/06/08 00:23:43;;;;;;;67.93;25.27;;;16.50;99.90;;;;;;4961477;29;20172;-87
2022/06/08 00:26:09;;;;;;;69.80;26.00;;;16.50;99.90;;;;;;4961596;29;20409;-87
2022/06/08 00:28:35;;;;;;;69.30;26.90;;;16.60;99.90;;;;;;4960871;29;20413;-87
2022/06/08 00:31:01;;;;;;;70.67;28.87;;;16.60;99.90;;;;;;4961328;29;20422;-87
2022/06/08 00:33:27;;;;;;;70.70;32.60;;;16.60;99.90;;;;;;4961228;29;20179;-87
2022/06/08 00:35:53;;;;;;;68.23;23.60;;;16.60;99.90;;;;;;4960791;29;20407;-87
2022/06/08 00:38:19;;;;;;;69.10;23.60;;;16.60;99.90;;;;;;4961284;29;20450;-87
2022/06/08 00:41:16;;;;;;;71.97;29.00;;;16.60;99.90;;;;;;4961775;29;20188;-87
2022/06/08 00:43:41;;;;;;;70.43;28.70;;;16.60;99.90;;;;;;4945341;29;20449;-86
2022/06/08 00:46:08;;;;;;;68.30;25.40;;;16.50;99.90;;;;;;4960404;29;20423;-87
2022/06/08 00:48:41;;;;;;;69.47;22.10;;;16.50;99.90;;;;;;4959998;29;20423;-87
2022/06/08 00:51:07;;;;;;;70.60;23.87;;;16.50;99.90;;;;;;4959666;29;20415;-87
2022/06/08 00:53:40;;;;;;;70.00;24.33;;;16.60;99.90;;;;;;4943131;29;20415;-87
2022/06/08 00:56:10;;;;;;;69.77;28.83;;;16.50;99.90;;;;;;4960266;29;20421;-87
2022/06/08 00:58:37;;;;;;;71.63;24.63;;;16.50;99.90;;;;;;4960119;29;20439;-87
2022/06/08 01:01:04;;;;;;;71.27;25.63;;;16.50;99.90;;;;;;4961303;29;20393;-87
2022/06/08 01:03:29;;;;;;;69.10;26.90;;;16.50;99.90;;;;;;4961524;29;20424;-87
2022/06/08 01:06:03;;;;;;;70.23;24.20;;;16.50;99.90;;;;;;4961019;29;20424;-87
2022/06/08 01:08:51;;;;;;;74.73;25.57;;;16.50;99.90;;;;;;4958777;29;20214;-88
2022/06/08 01:11:29;;;;;;;69.30;25.87;;;16.40;99.90;;;;;;4959206;29;20432;-88
2022/06/08 01:13:59;;;;;;;69.10;26.33;;;16.40;99.90;;;;;;4960574;29;20372;-87
2022/06/08 01:16:26;;;;;;;69.43;24.13;;;16.40;99.90;;;;;;4960559;29;20458;-87
2022/06/08 01:18:51;;;;;;;68.33;23.00;;;16.40;99.90;;;;;;4959977;29;20450;-88
2022/06/08 01:21:20;;;;;;;68.07;22.17;;;16.40;99.90;;;;;;4959419;29;20457;-87
2022/06/08 01:23:51;;;;;;;67.30;20.43;;;16.40;99.90;;;;;;4960005;29;20223;-88
2022/06/08 01:26:44;;;;;;;67.30;16.93;;;16.40;99.90;;;;;;4958515;29;20412;-87
2022/06/08 01:29:31;;;;;;;66.70;20.40;;;16.40;99.90;;;;;;4960773;29;20400;-88
2022/06/08 01:32:06;;;;;;;68.33;23.73;;;16.40;99.90;;;;;;4960704;29;20409;-88
2022/06/08 01:35:00;;;;;;;67.67;23.73;;;16.30;99.90;;;;;;4959350;29;20377;-87
2022/06/08 01:37:50;;;;;;;68.80;20.60;;;16.30;99.90;;;;;;4961248;29;20413;-86
2022/06/08 01:40:34;;;;;;;72.73;21.33;;;16.30;99.90;;;;;;4961314;29;20431;-87
2022/06/08 01:43:03;;;;;;;67.67;23.00;;;16.30;99.90;;;;;;4944788;29;20505;-87
2022/06/08 01:45:52;;;;;;;70.07;27.73;;;16.20;99.90;;;;;;4960446;29;20421;-87
2022/06/08 01:48:27;;;;;;;66.87;20.10;;;16.20;99.90;;;;;;4959506;29;20391;-87
2022/06/08 01:50:55;;;;;;;66.43;16.97;;;16.20;99.90;;;;;;4961146;29;20392;-86
2022/06/08 01:53:24;;;;;;;65.90;17.57;;;16.10;99.90;;;;;;4960794;29;20421;-87
2022/06/08 01:55:57;;;;;;;67.70;21.70;;;16.00;99.90;;;;;;4960682;29;20492;-87
2022/06/08 01:58:40;;;;;;;69.70;23.50;;;16.00;99.90;;;;;;4961110;29;20462;-87
2022/06/08 02:01:22;;;;;;;67.60;20.50;;;16.00;99.90;;;;;;4945970;29;20951;-87
2022/06/08 02:03:59;;;;;;;66.50;20.17;;;16.00;99.90;;;;;;4944678;29;20434;-86
2022/06/08 02:06:40;;;;;;;67.83;20.27;;;15.90;99.90;;;;;;4961055;29;20453;-87
2022/06/08 02:09:22;;;;;;;67.80;18.17;;;15.90;99.90;;;;;;4961143;29;20464;-87
2022/06/08 02:11:58;;;;;;;67.77;16.47;;;15.80;99.90;;;;;;4960975;29;20388;-87
2022/06/08 02:14:35;;;;;;;65.63;17.67;;;15.80;99.90;;;;;;4960734;29;20471;-86
2022/06/08 02:17:37;;;;;;;66.50;20.83;;;15.70;99.90;;;;;;4960920;29;20446;-86
2022/06/08 02:20:21;;;;;;;73.93;22.33;;;15.70;99.90;;;;;;4960350;29;20442;-87
2022/06/08 02:23:02;;;;;;;66.53;18.63;;;15.60;99.90;;;;;;4960485;29;20442;-87
2022/06/08 02:25:53;;;;;;;66.93;14.73;;;15.60;99.90;;;;;;4960750;29;20478;-86
2022/06/08 02:28:27;;;;;;;65.07;17.17;;;15.60;99.90;;;;;;4944364;29;20447;-86
2022/06/08 02:30:58;;;;;;;66.33;17.37;;;15.50;99.90;;;;;;4960285;29;20453;-88
2022/06/08 02:36:23;;;;;;;69.17;22.67;;;15.40;99.90;;;;;;4960142;29;20404;-87
2022/06/08 02:39:25;;;;;;;69.00;26.37;;;15.30;99.90;;;;;;4960427;29;20465;-88
2022/06/08 02:41:54;;;;;;;66.67;18.57;;;15.40;99.90;;;;;;4960345;29;20390;-87
2022/06/08 02:44:24;;;;;;;69.33;26.17;;;15.40;99.90;;;;;;4959450;29;20415;-87
2022/06/08 02:47:32;;;;;;;68.20;20.10;;;15.40;99.90;;;;;;4960993;29;20952;-88
2022/06/08 02:50:06;;;;;;;70.70;22.90;;;15.40;99.90;;;;;;4950721;29;20418;-87
2022/06/08 02:52:32;;;;;;;67.30;21.90;;;15.30;99.90;;;;;;4963673;29;20384;-87
2022/06/08 02:54:58;;;;;;;69.63;26.13;;;15.30;99.90;;;;;;4963016;29;20405;-87
2022/06/08 02:57:33;;;;;;;71.00;28.20;;;15.30;99.90;;;;;;4963775;29;20440;-87
2022/06/08 03:00:12;;;;;;;70.90;28.07;;;15.30;99.90;;;;;;4947301;29;20464;-87
2022/06/08 03:03:12;;;;;;;68.00;22.60;;;15.30;99.90;;;;;;4964095;29;20392;-86
2022/06/08 03:05:47;;;;;;;69.30;19.97;;;15.30;99.90;;;;;;4963979;29;20449;-88
2022/06/08 03:08:26;;;;;;;68.63;19.87;;;15.40;99.90;;;;;;4964105;29;20469;-88
2022/06/08 03:10:53;;;;;;;68.40;18.23;;;15.40;99.90;;;;;;4963751;29;20400;-87
2022/06/08 03:13:28;;;;;;;68.57;20.63;;;15.40;99.90;;;;;;4964045;29;20462;-87
2022/06/08 03:15:58;;;;;;;67.40;16.90;;;15.50;99.90;;;;;;4963190;29;20441;-88
2022/06/08 03:18:24;;;;;;;70.37;22.63;;;15.50;99.90;;;;;;4963974;29;20440;-87
2022/06/08 03:20:51;;;;;;;67.80;22.23;;;15.50;99.90;;;;;;4963849;29;20414;-86
2022/06/08 03:23:18;;;;;;;69.57;24.83;;;15.50;99.90;;;;;;5009876;23;20488;-87
2022/06/08 03:25:44;;;;;;;67.70;18.83;;;15.50;99.90;;;;;;4943667;29;20497;-86
2022/06/08 03:28:13;;;;;;;73.73;25.53;;;15.50;99.90;;;;;;4926560;29;20412;-86
2022/06/08 03:30:39;;;;;;;68.93;21.37;;;15.60;99.90;;;;;;4943869;29;20867;-87
2022/06/08 03:33:05;;;;;;;69.23;22.00;;;15.60;99.90;;;;;;4925423;29;20923;-86
2022/06/08 03:35:31;;;;;;;68.10;18.73;;;15.50;99.90;;;;;;4942662;29;20413;-86
2022/06/08 03:37:58;;;;;;;67.13;19.60;;;15.50;99.90;;;;;;4925145;29;20253;-86
2022/06/08 03:40:24;;;;;;;66.63;15.60;;;15.60;99.90;;;;;;4925861;29;20167;-86
2022/06/08 03:42:50;;;;;;;67.30;16.63;;;15.60;99.90;;;;;;4942818;29;20410;-86
2022/06/08 03:45:16;;;;;;;67.23;21.03;;;15.60;99.90;;;;;;4944431;29;20427;-86
2022/06/08 03:47:48;;;;;;;67.67;21.97;;;15.60;99.90;;;;;;4943583;29;20174;-86
2022/06/08 03:50:18;;;;;;;69.10;25.50;;;15.70;99.90;;;;;;4925829;29;20415;-86
2022/06/08 03:52:48;;;;;;;70.30;21.23;;;15.70;99.90;;;;;;4942277;29;20516;-86
2022/06/08 03:55:19;;;;;;;67.67;19.00;;;15.70;99.90;;;;;;4942874;29;20921;-86
2022/06/08 03:57:45;;;;;;;67.00;20.23;;;15.70;99.90;;;;;;4942060;29;20399;-86
2022/06/08 04:00:14;;;;;;;67.00;20.10;;;15.70;99.90;;;;;;4925448;29;20450;-86
2022/06/08 04:02:40;;;;;;;70.00;19.30;;;15.70;99.90;;;;;;4942699;29;20477;-86
2022/06/08 04:05:06;;;;;;;67.00;18.43;;;15.70;99.90;;;;;;4942604;29;20407;-87
2022/06/08 04:07:35;;;;;;;68.00;18.70;;;15.60;99.90;;;;;;4925414;29;20470;-86
2022/06/08 04:10:00;;;;;;;65.90;15.53;;;15.60;99.90;;;;;;4942167;29;20411;-86
2022/06/08 04:12:27;;;;;;;66.47;18.73;;;15.60;99.90;;;;;;4942653;29;20415;-86
2022/06/08 04:14:52;;;;;;;67.87;16.87;;;15.70;99.90;;;;;;4942115;29;20175;-86
2022/06/08 04:17:19;;;;;;;69.10;20.97;;;15.60;99.90;;;;;;4943000;29;20795;-86
2022/06/08 04:19:49;;;;;;;66.17;18.53;;;15.70;99.90;;;;;;4925178;29;20252;-86
2022/06/08 04:22:20;;;;;;;67.70;22.33;;;15.70;99.90;;;;;;4943156;29;20456;-86
2022/06/08 04:24:46;;;;;;;67.60;19.93;;;15.70;99.90;;;;;;4941705;29;20411;-86
2022/06/08 04:27:11;;;;;;;67.67;21.30;;;15.60;99.90;;;;;;4942390;29;21074;-87
2022/06/08 04:29:38;;;;;;;66.50;20.00;;;15.60;99.90;;;;;;4941355;29;20409;-86
2022/06/08 04:32:06;;;;;;;68.57;19.87;;;15.70;99.90;;;;;;4925028;29;20171;-86
2022/06/08 04:34:32;;;;;;;69.87;24.50;;;15.60;99.90;;;;;;4941850;29;20418;-86
2022/06/08 04:36:58;;;;;;;70.37;21.07;;;15.60;99.90;;;;;;4941613;29;20432;-86
2022/06/08 04:39:23;;;;;;;70.60;26.10;;;15.70;99.90;;;;;;4924428;29;20484;-86
2022/06/08 04:41:49;;;;;;;72.50;22.50;;;15.80;99.90;;;;;;4942592;29;20161;-86
2022/06/08 04:44:15;;;;;;;69.00;24.87;;;15.90;99.90;;;;;;4942373;29;20173;-86
2022/06/08 04:46:41;;;;;;;70.70;28.77;;;16.00;99.90;;;;;;4942427;29;20214;-86
2022/06/08 04:49:08;;;;;;;70.50;28.63;;;16.00;99.90;;;;;;4925582;29;20177;-87
2022/06/08 04:51:35;;;;;;;69.50;27.33;;;16.10;99.90;;;;;;4925536;29;20423;-86
2022/06/08 04:54:01;;;;;;;69.50;27.57;;;16.20;99.90;;;;;;4925504;29;20424;-86
2022/06/08 04:56:27;;;;;;;70.07;27.93;;;16.30;99.90;;;;;;4925183;29;20525;-86
2022/06/08 04:58:54;;;;;;;69.43;26.93;;;16.30;99.90;;;;;;4942109;29;20487;-86
2022/06/08 05:01:21;;;;;;;69.60;26.40;;;16.30;99.90;;;;;;4925049;29;20463;-86
2022/06/08 05:03:47;;;;;;;70.03;28.73;;;16.50;99.90;;;;;;4924788;29;20414;-86
2022/06/08 05:06:12;;;;;;;68.47;25.30;;;16.50;99.90;;;;;;4924781;29;20436;-86
2022/06/08 05:08:40;;;;;;;67.40;21.70;;;16.60;99.90;;;;;;4942070;29;20227;-86
2022/06/08 05:11:07;;;;;;;69.40;25.00;;;16.70;99.90;;;;;;4942558;29;20180;-86
2022/06/08 05:13:36;;;;;;;67.13;21.60;;;16.80;99.90;;;;;;4942774;29;20407;-86
2022/06/08 05:16:08;;;;;;;67.10;17.83;;;16.80;99.90;;;;;;4926290;29;20440;-86
2022/06/08 05:18:34;;;;;;;68.50;21.50;;;16.80;99.90;;;;;;4926722;29;20494;-87
2022/06/08 05:21:00;;;;;;;66.23;19.60;;;16.80;99.90;;;;;;4926876;29;20404;-87
2022/06/08 05:23:31;;;;;;;65.30;15.53;;;16.90;99.90;;;;;;4928219;29;20431;-87
2022/06/08 05:25:58;;;;;;;64.80;15.27;;;17.00;99.90;;;;;;4942566;29;20185;-87
2022/06/08 05:28:27;;;;;;;63.97;11.90;;;17.10;99.90;;;;;;4927007;29;20420;-87
2022/06/08 05:30:56;;;;;;;61.67;6.90;;;17.20;99.90;;;;;;4926848;29;20507;-87
2022/06/08 05:33:23;;;;;;;61.67;5.57;;;17.20;99.90;;;;;;4926591;29;20464;-87
2022/06/08 05:35:49;;;;;;;63.50;7.30;;;17.20;99.90;;;;;;4941692;29;20461;-87
2022/06/08 05:38:15;;;;;;;60.90;4.70;;;17.20;99.90;;;;;;4923079;29;20420;-86
2022/06/08 05:40:40;;;;;;;64.43;5.20;;;17.10;99.90;;;;;;4922575;29;20224;-86
2022/06/08 05:43:10;;;;;;;61.50;5.80;;;17.20;99.90;;;;;;4939506;29;20659;-86
2022/06/08 05:45:36;;;;;;;62.40;6.80;;;17.30;99.90;;;;;;4921916;29;20275;-87
2022/06/08 05:48:04;;;;;;;61.57;5.37;;;17.40;99.90;;;;;;4921099;29;20459;-87
2022/06/08 05:50:30;;;;;;;61.77;6.10;;;17.40;99.90;;;;;;4921212;29;20184;-87
2022/06/08 05:52:56;;;;;;;61.17;5.47;;;17.40;99.90;;;;;;4938678;29;20405;-87
2022/06/08 05:55:23;;;;;;;62.50;6.17;;;17.40;99.90;;;;;;4937425;29;20936;-87
2022/06/08 05:57:51;;;;;;;61.77;6.63;;;17.40;99.90;;;;;;4920270;29;20420;-86
2022/06/08 06:00:20;;;;;;;61.67;6.20;;;17.50;99.90;;;;;;4937323;29;21058;-87
2022/06/08 06:02:46;;;;;;;62.47;6.60;;;17.60;99.90;;;;;;4920066;29;20428;-87
2022/06/08 06:05:14;;;;;;;61.87;6.03;;;17.50;99.90;;;;;;4937022;29;20424;-86
2022/06/08 06:07:42;;;;;;;61.10;5.23;;;17.50;99.90;;;;;;4937061;29;20199;-87
2022/06/08 06:10:09;;;;;;;61.80;6.70;;;17.60;99.90;;;;;;4920141;29;20475;-86
2022/06/08 06:12:35;;;;;;;62.67;6.50;;;17.70;99.90;;;;;;4920454;29;20439;-86
2022/06/08 06:15:04;;;;;;;66.37;7.60;;;17.70;99.90;;;;;;4937215;29;20421;-86
2022/06/08 06:17:30;;;;;;;63.20;7.43;;;17.60;99.90;;;;;;4920894;29;20773;-87
2022/06/08 06:19:57;;;;;;;61.50;6.23;;;17.60;99.90;;;;;;4937723;29;20456;-86
2022/06/08 06:22:23;;;;;;;62.70;9.37;;;17.70;99.90;;;;;;4921244;29;20452;-87
2022/06/08 06:24:48;;;;;;;67.67;9.57;;;17.80;99.90;;;;;;4921401;29;20472;-87
2022/06/08 06:27:14;;;;;;;61.60;6.77;;;17.90;99.90;;;;;;4937619;29;20188;-87
2022/06/08 06:29:40;;;;;;;62.20;8.50;;;17.80;99.90;;;;;;4938150;29;20181;-88
2022/06/08 06:32:49;;;;;;;64.20;8.50;;;17.80;99.90;;;;;;4937661;29;20413;-87
2022/06/08 06:35:36;;;;;;;63.57;8.43;;;17.80;99.90;;;;;;4923092;29;20220;-87
2022/06/08 06:38:03;;;;;;;63.37;7.60;;;17.90;99.90;;;;;;4937632;29;20412;-87
2022/06/08 06:40:46;;;;;;;62.57;9.67;;;17.90;99.90;;;;;;4919727;29;20461;-87
2022/06/08 06:43:14;;;;;;;65.37;9.33;;;18.10;99.90;;;;;;4937159;29;20408;-87
2022/06/08 06:45:43;;;;;;;62.00;6.20;;;18.00;99.90;;;;;;4919388;29;20944;-87
2022/06/08 06:48:11;;;;;;;62.73;7.57;;;18.00;99.90;;;;;;4936624;29;20451;-87
2022/06/08 06:50:37;;;;;;;63.13;9.90;;;18.00;99.90;;;;;;4918982;29;20420;-87
2022/06/08 06:53:02;;;;;;;63.90;7.70;;;18.10;99.90;;;;;;4936247;29;20440;-86
2022/06/08 06:55:31;;;;;;;62.40;8.40;;;18.30;99.90;;;;;;4935815;29;20656;-86
2022/06/08 06:57:57;;;;;;;62.30;8.23;;;18.30;99.90;;;;;;4919258;29;20184;-86
2022/06/08 07:00:24;;;;;;;62.00;6.50;;;18.30;99.90;;;;;;4935940;29;20448;-86
2022/06/08 07:02:50;;;;;;;62.60;6.87;;;18.30;99.90;;;;;;4936311;29;20165;-86
2022/06/08 07:05:22;;;;;;;65.90;7.67;;;18.40;99.90;;;;;;4936250;29;20428;-86
2022/06/08 07:07:48;;;;;;;64.37;8.53;;;18.50;99.90;;;;;;4920358;29;20417;-85
2022/06/08 07:10:18;;;;;;;64.37;7.33;;;18.60;99.90;;;;;;4938337;29;20393;-85
2022/06/08 07:12:44;;;;;;;64.17;9.47;;;18.60;99.90;;;;;;4939340;29;20821;-85
2022/06/08 07:15:15;;;;;;;63.17;7.97;;;18.60;99.90;;;;;;4938206;29;20510;-85
2022/06/08 07:17:41;;;;;;;62.10;6.70;;;18.60;99.90;;;;;;4921947;29;20784;-85
2022/06/08 07:20:07;;;;;;;63.03;7.70;;;18.60;99.90;;;;;;4921696;29;20456;-85
2022/06/08 07:22:33;;;;;;;67.60;8.27;;;18.50;99.90;;;;;;4937927;29;20211;-85
2022/06/08 07:24:59;;;;;;;63.17;7.20;;;18.60;99.90;;;;;;4920606;29;20785;-85
2022/06/08 07:27:25;;;;;;;62.93;6.50;;;18.60;99.90;;;;;;4938125;29;20405;-85
2022/06/08 07:29:51;;;;;;;62.30;6.80;;;18.70;99.90;;;;;;4919744;29;20232;-85
2022/06/08 07:32:17;;;;;;;64.73;6.87;;;18.80;99.90;;;;;;4919626;29;20515;-85
2022/06/08 07:34:44;;;;;;;63.13;7.50;;;18.70;99.90;;;;;;4940001;29;20416;-85
2022/06/08 07:37:09;;;;;;;63.43;7.00;;;18.60;99.90;;;;;;4923277;29;20464;-85
2022/06/08 07:39:35;;;;;;;62.47;6.90;;;18.60;99.90;;;;;;4940100;29;20479;-85
2022/06/08 07:42:02;;;;;;;64.53;7.17;;;18.80;99.90;;;;;;4940093;29;20411;-85
2022/06/08 07:44:28;;;;;;;62.77;6.67;;;18.80;99.90;;;;;;4940351;29;20784;-85
2022/06/08 07:46:54;;;;;;;62.47;5.93;;;18.80;99.90;;;;;;4939907;29;20428;-86
2022/06/08 07:49:37;;;;;;;65.90;7.23;;;18.90;99.90;;;;;;4939956;29;20419;-85
2022/06/08 07:52:14;;;;;;;63.27;7.20;;;19.00;99.90;;;;;;4940141;29;20549;-85
2022/06/08 07:54:41;;;;;;;63.43;6.97;;;19.00;99.90;;;;;;4922593;29;20784;-86
2022/06/08 07:57:13;;;;;;;66.30;7.03;;;19.10;99.90;;;;;;4939810;29;20429;-85
2022/06/08 07:59:39;;;;;;;63.40;10.53;;;19.10;99.90;;;;;;4922230;29;20480;-85
2022/06/08 08:02:07;;;;;;;63.60;10.23;;;19.10;99.90;;;;;;4939852;29;20405;-85
2022/06/08 08:04:34;;;;;;;63.07;8.60;;;19.30;99.90;;;;;;4939728;29;20161;-85
2022/06/08 08:07:00;;;;;;;66.07;6.83;;;19.40;99.90;;;;;;4922828;29;20971;-85
2022/06/08 08:09:25;;;;;;;64.83;6.57;;;19.30;99.90;;;;;;4939867;29;20385;-85
2022/06/08 08:11:53;;;;;;;62.80;6.70;;;19.40;99.90;;;;;;4940588;29;20164;-85
2022/06/08 08:14:20;;;;;;;63.50;6.73;;;19.60;99.90;;;;;;4940741;29;20165;-85
2022/06/08 08:16:46;;;;;;;65.40;6.80;;;19.60;99.90;;;;;;4940327;29;20432;-85
2022/06/08 08:19:16;;;;;;;64.27;6.90;;;19.80;99.90;;;;;;4940908;29;20448;-85
2022/06/08 08:21:41;;;;;;;63.17;7.63;;;19.80;99.90;;;;;;4923762;29;20429;-86
2022/06/08 08:24:07;;;;;;;62.83;3.40;;;19.70;99.90;;;;;;4940584;29;20413;-85
2022/06/08 08:26:33;;;;;;;62.90;3.10;;;19.80;99.90;;;;;;4940210;29;20184;-86
2022/06/08 08:28:59;;;;;;;62.17;4.27;;;19.80;99.90;;;;;;4939798;29;20169;-86
2022/06/08 08:31:25;;;;;;;63.70;6.00;;;19.80;99.90;;;;;;4939901;29;20448;-86
2022/06/08 08:33:51;;;;;;;63.17;5.17;;;19.80;99.90;;;;;;4939659;29;20449;-86
2022/06/08 08:36:18;;;;;;;64.70;5.60;;;19.80;99.90;;;;;;4922176;29;20444;-86
2022/06/08 08:38:44;;;;;;;63.70;6.77;;;20.00;99.90;;;;;;4939273;29;20198;-85
2022/06/08 08:44:03;;;;;;;66.60;3.00;;;20.10;99.90;;;;;;4938540;29;20438;-85
2022/06/08 08:46:48;;;;;;;64.50;2.87;;;20.20;99.90;;;;;;4938947;29;20417;-85
2022/06/08 08:49:23;;;;;;;64.23;2.90;;;20.30;99.90;;;;;;4939101;29;20878;-86
2022/06/08 08:52:27;;;;;;;64.67;2.90;;;20.40;99.90;;;;;;4921533;29;20425;-84
2022/06/08 08:55:08;;;;;;;62.67;3.17;;;20.60;99.90;;;;;;4908666;29;20420;-85
2022/06/08 08:57:53;;;;;;;63.77;3.27;;;20.80;99.90;;;;;;4921272;29;20414;-85
2022/06/08 09:00:40;;;;;;;67.87;3.90;;;21.00;99.90;;;;;;4938664;29;20438;-85
2022/06/08 09:03:44;;;;;;;62.87;3.40;;;21.10;99.90;;;;;;4922501;29;20403;-84
2022/06/08 09:06:14;;;;;;;66.13;4.00;;;21.10;99.90;;;;;;4938799;29;20421;-84
2022/06/08 09:08:45;;;;;;;66.00;4.40;;;21.20;99.90;;;;;;4921442;29;20428;-84
2022/06/08 09:11:34;;;;;;;67.33;4.30;;;21.50;99.90;;;;;;4939399;29;20930;-84
2022/06/08 09:14:22;;;;;;;67.63;4.80;;;21.70;99.90;;;;;;4922333;29;20510;-83
2022/06/08 09:16:51;;;;;;;65.67;5.60;;;21.90;99.90;;;;;;4939913;29;20515;-86
2022/06/08 09:19:25;;;;;;;65.93;4.97;;;21.80;99.90;;;;;;4946235;29;20444;-85
2022/06/08 09:21:56;;;;;;;64.20;3.60;;;21.90;99.90;;;;;;4941574;29;20939;-84
2022/06/08 09:24:41;;;;;;;65.67;3.33;;;22.00;99.90;;;;;;4987990;23;20531;-90
2022/06/08 09:27:27;;;;;;;64.40;3.90;;;22.10;99.90;;;;;;4937298;29;20427;-89
2022/06/08 09:29:58;;;;;;;64.87;2.67;;;22.40;99.90;;;;;;4937671;29;20879;-88
2022/06/08 09:32:31;;;;;;;66.53;2.80;;;22.60;93.40;;;;;;4937542;29;20412;-88
2022/06/08 09:35:00;;;;;;;65.67;2.50;;;22.60;94.70;;;;;;4920161;29;20775;-88
2022/06/08 09:37:27;;;;;;;68.60;3.60;;;22.70;90.80;;;;;;4937642;29;20781;-86
2022/06/08 09:39:55;;;;;;;64.63;2.57;;;22.30;75.70;;;;;;4920164;29;20445;-87
2022/06/08 09:42:21;;;;;;;63.97;2.77;;;22.20;92.60;;;;;;4936945;29;20773;-86
2022/06/08 09:45:10;;;;;;;63.90;2.50;;;22.00;96.90;;;;;;4919817;29;20417;-88
2022/06/08 09:54:27;;;;;;;65.57;2.93;;;21.90;96.70;;;;;;4937737;29;20428;-88
2022/06/08 09:57:14;;;;;;;65.53;3.43;;;21.90;94.80;;;;;;4884882;29;20840;-86
2022/06/08 09:59:46;;;;;;;67.03;4.20;;;21.70;77.90;;;;;;4920086;29;20857;-87
2022/06/08 10:02:41;;;;;;;66.10;2.90;;;21.60;90.10;;;;;;4936804;29;20405;-87
2022/06/08 10:05:35;;;;;;;65.47;3.27;;;21.60;89.20;;;;;;4909697;29;20412;-87
2022/06/08 10:08:06;;;;;;;67.27;3.70;;;21.80;94.50;;;;;;4936813;29;20403;-86
2022/06/08 10:10:59;;;;;;;66.70;4.17;;;21.50;81.30;;;;;;4936864;29;20408;-86
2022/06/08 10:13:42;;;;;;;65.10;3.20;;;21.60;90.90;;;;;;4919289;29;20415;-87
2022/06/08 10:16:23;;;;;;;66.87;3.17;;;21.80;94.10;;;;;;4937136;29;20515;-87
2022/06/08 10:18:56;;;;;;;65.80;2.93;;;22.00;91.90;;;;;;4936218;29;20437;-87
2022/06/08 10:21:33;;;;;;;66.33;3.00;;;22.00;93.10;;;;;;4920072;29;20924;-87
2022/06/08 10:24:26;;;;;;;67.00;3.80;;;22.10;97.00;;;;;;4937013;29;20440;-87
2022/06/08 10:27:23;;;;;;;70.87;5.27;;;21.90;83.80;;;;;;4911077;29;20523;-87
2022/06/08 10:30:23;;;;;;;71.83;3.87;;;21.70;78.10;;;;;;4935801;29;20427;-87
2022/06/08 10:33:00;;;;;;;67.43;4.90;;;21.70;88.50;;;;;;4925914;29;20419;-87
2022/06/08 10:35:33;;;;;;;69.77;4.40;;;21.60;83.60;;;;;;4936351;29;20439;-87
2022/06/08 10:38:00;;;;;;;64.70;3.27;;;21.30;77.70;;;;;;4936689;29;20384;-87
2022/06/08 10:40:44;;;;;;;67.63;4.13;;;21.30;87.90;;;;;;4936716;29;20497;-87
2022/06/08 10:43:20;;;;;;;65.13;3.00;;;21.30;97.10;;;;;;4936697;29;20399;-87
2022/06/08 10:45:51;;;;;;;69.90;3.90;;;21.40;98.90;;;;;;4921273;29;20443;-87
2022/06/08 10:48:25;;;;;;;69.33;3.20;;;21.10;99.90;;;;;;4937809;29;20476;-87
2022/06/08 10:51:10;;;;;;;64.97;3.40;;;21.30;99.90;;;;;;4937272;29;20382;-87
2022/06/08 10:56:34;;;;;;;66.33;3.67;;;21.10;96.20;;;;;;4937543;29;20471;-88
2022/06/08 10:59:03;;;;;;;68.57;3.40;;;20.90;99.90;;;;;;4920303;29;20448;-88
2022/06/08 11:01:50;;;;;;;65.47;2.77;;;20.70;99.90;;;;;;4937805;29;20535;-88
2022/06/08 11:04:35;;;;;;;67.37;4.40;;;20.40;99.90;;;;;;4919522;29;20437;-88
2022/06/08 11:07:47;;;;;;;63.77;4.60;;;20.10;99.90;;;;;;4920689;29;20440;-87
2022/06/08 11:10:33;;;;;;;65.63;6.83;;;20.00;99.90;;;;;;4923583;29;20430;-88
2022/06/08 11:13:15;;;;;;;66.00;8.33;;;19.90;99.90;;;;;;4939237;29;20405;-89
2022/06/08 11:15:46;;;;;;;64.60;8.90;;;19.80;99.90;;;;;;4923294;29;20436;-88
2022/06/08 11:18:17;;;;;;;68.53;10.17;;;19.60;99.90;;;;;;4939372;29;20815;-86
2022/06/08 11:20:51;;;;;;;66.57;12.03;;;19.50;99.90;;;;;;4939553;29;20831;-86
2022/06/08 11:23:35;;;;;;;68.23;10.13;;;19.60;99.90;;;;;;4939963;29;20944;-87
2022/06/08 11:26:06;;;;;;;65.47;10.13;;;19.60;99.90;;;;;;4939081;29;20436;-87
2022/06/08 11:28:39;;;;;;;64.93;8.93;;;19.50;99.90;;;;;;4939164;29;20413;-87
2022/06/08 11:31:25;;;;;;;64.80;7.63;;;19.70;99.90;;;;;;4939095;29;20389;-87
2022/06/08 11:34:03;;;;;;;66.17;8.50;;;19.60;99.90;;;;;;4939065;29;20449;-87
2022/06/08 11:36:41;;;;;;;66.77;8.63;;;19.80;99.90;;;;;;4939937;29;20424;-87
2022/06/08 11:39:44;;;;;;;65.87;9.77;;;19.90;99.90;;;;;;4939549;29;20521;-87
2022/06/08 11:42:25;;;;;;;65.17;7.90;;;20.20;99.90;;;;;;4939698;29;20741;-90
2022/06/08 11:45:12;;;;;;;68.80;8.40;;;20.20;99.90;;;;;;4939062;29;20389;-87
2022/06/08 11:48:00;;;;;;;64.40;8.33;;;20.30;99.90;;;;;;4924508;29;20421;-87
2022/06/08 11:50:43;;;;;;;67.60;9.70;;;20.20;99.90;;;;;;4922111;29;20399;-87
2022/06/08 11:53:31;;;;;;;66.07;10.00;;;20.20;99.90;;;;;;4938708;29;20393;-87
2022/06/08 11:56:32;;;;;;;65.50;8.83;;;20.20;99.90;;;;;;4921270;29;20960;-87
2022/06/08 11:59:01;;;;;;;65.77;7.30;;;20.00;99.90;;;;;;4938620;29;20440;-87
2022/06/08 12:01:31;;;;;;;65.50;7.20;;;20.00;99.90;;;;;;4921491;29;20511;-87
2022/06/08 12:04:08;;;;;;;66.20;8.40;;;20.10;99.90;;;;;;4921438;29;20401;-87
2022/06/08 12:06:37;;;;;;;67.10;6.03;;;20.20;99.90;;;;;;4940081;29;20447;-87
2022/06/08 12:09:20;;;;;;;64.70;5.70;;;20.10;99.90;;;;;;4921563;29;20407;-87
2022/06/08 12:11:50;;;;;;;68.17;7.33;;;20.10;99.90;;;;;;4938599;29;20393;-87
2022/06/08 12:14:21;;;;;;;63.50;6.63;;;20.30;99.90;;;;;;4938475;29;20408;-87
2022/06/08 12:17:14;;;;;;;63.70;6.70;;;20.10;99.90;;;;;;4938459;29;20440;-87
2022/06/08 12:19:43;;;;;;;63.27;5.83;;;20.00;99.90;;;;;;4938163;29;20524;-87
2022/06/08 12:22:29;;;;;;;63.67;6.00;;;20.00;99.90;;;;;;4938263;29;20399;-87
2022/06/08 12:25:13;;;;;;;64.77;9.80;;;20.20;99.90;;;;;;4920882;29;20952;-87
2022/06/08 12:28:07;;;;;;;64.83;8.50;;;20.20;99.90;;;;;;4938077;29;20409;-86
2022/06/08 12:30:35;;;;;;;64.73;7.67;;;20.40;99.90;;;;;;4913204;29;20410;-87
2022/06/08 12:33:18;;;;;;;68.63;8.43;;;20.50;99.90;;;;;;5065518;23;20575;-86
2022/06/08 12:36:11;;;;;;;65.67;8.10;;;20.50;99.90;;;;;;4920757;29;20475;-86
2022/06/08 12:38:57;;;;;;;66.07;8.40;;;20.60;99.90;;;;;;4937721;29;20440;-87
2022/06/08 12:41:38;;;;;;;67.13;9.90;;;20.70;99.90;;;;;;4937799;29;20925;-87
2022/06/08 12:44:07;;;;;;;69.40;8.00;;;20.60;99.90;;;;;;4937851;29;20419;-87
2022/06/08 12:46:36;;;;;;;66.43;9.87;;;20.60;99.90;;;;;;4937621;29;20421;-87
2022/06/08 12:49:17;;;;;;;64.53;8.10;;;20.60;99.90;;;;;;4920593;29;20427;-88
2022/06/08 12:51:50;;;;;;;67.40;8.17;;;20.40;99.90;;;;;;4937856;29;20434;-87
2022/06/08 12:54:22;;;;;;;65.50;6.20;;;20.50;99.90;;;;;;4937610;29;20423;-87
2022/06/08 12:56:52;;;;;;;65.07;5.70;;;20.50;99.90;;;;;;4937723;29;20480;-87
2022/06/08 12:59:18;;;;;;;63.40;4.47;;;20.70;99.90;;;;;;4937455;29;20814;-87
2022/06/08 13:01:44;;;;;;;67.87;7.40;;;20.70;99.90;;;;;;4920624;29;20914;-87
2022/06/08 13:04:13;;;;;;;65.10;6.07;;;20.70;99.90;;;;;;4920325;29;20419;-87
2022/06/08 13:06:39;;;;;;;64.57;5.47;;;20.60;99.90;;;;;;4937267;29;20432;-87
2022/06/08 13:09:09;;;;;;;67.17;6.43;;;20.60;99.90;;;;;;4937628;29;20412;-87
2022/06/08 13:11:35;;;;;;;67.90;8.00;;;20.60;99.90;;;;;;4937350;29;20161;-88
2022/06/08 13:14:00;;;;;;;67.20;6.70;;;20.50;99.90;;;;;;4937238;29;20416;-87
2022/06/08 13:16:30;;;;;;;65.17;5.50;;;20.40;99.90;;;;;;4920655;29;20209;-87
2022/06/08 13:18:57;;;;;;;64.30;6.53;;;20.30;99.90;;;;;;4937109;29;20537;-87